createdAt,value
2022-11-24T00:02:26.339Z,86.65
2022-11-24T00:04:57.671Z,86.51
2022-11-24T00:07:28.757Z,86.39
2022-11-24T00:09:59.740Z,86.32
2022-11-24T00:12:30.823Z,86.32
2022-11-24T00:15:01.937Z,86.23
2022-11-24T00:17:31.699Z,86.23
2022-11-24T00:20:02.876Z,86.17
2022-11-24T00:22:35.071Z,86.07
2022-11-24T00:25:07.484Z,85.91
2022-11-24T00:27:38.530Z,85.84
2022-11-24T00:30:11.409Z,85.87
2022-11-24T00:32:42.698Z,85.84
2022-11-24T00:35:12.468Z,85.83
2022-11-24T00:37:43.778Z,85.83
2022-11-24T00:40:13.810Z,85.81
2022-11-24T00:42:45.174Z,86.02
2022-11-24T00:45:16.492Z,85.91
2022-11-24T00:47:47.701Z,85.81
2022-11-24T00:50:20.215Z,85.85
2022-11-24T00:52:51.638Z,85.81
2022-11-24T00:55:22.739Z,85.68
2022-11-24T00:57:54.039Z,85.82
2022-11-24T01:00:25.123Z,85.78
2022-11-24T01:02:56.473Z,85.82
2022-11-24T01:05:27.700Z,85.87
2022-11-24T01:07:58.891Z,86.10
2022-11-24T01:10:28.729Z,86.17
2022-11-24T01:12:59.840Z,86.57
2022-11-24T01:15:31.435Z,86.81
2022-11-24T01:18:02.917Z,86.93
2022-11-24T01:20:32.868Z,87.04
2022-11-24T01:23:03.892Z,87.36
2022-11-24T01:25:34.965Z,87.19
2022-11-24T01:28:06.700Z,87.38
2022-11-24T01:30:38.031Z,87.41
2022-11-24T01:33:07.568Z,87.58
2022-11-24T01:35:39.554Z,87.68
2022-11-24T01:38:10.693Z,87.74
2022-11-24T01:40:42.150Z,87.48
2022-11-24T01:43:19.917Z,87.70
2022-11-24T01:45:51.816Z,87.75
2022-11-24T01:48:27.467Z,87.58
2022-11-24T01:51:09.267Z,87.50
2022-11-24T01:53:43.449Z,87.75
2022-11-24T01:56:16.227Z,87.64
2022-11-24T01:58:49.649Z,87.77
2022-11-24T02:01:21.003Z,87.84
2022-11-24T02:03:53.578Z,87.96
2022-11-24T02:06:28.801Z,87.99
2022-11-24T02:09:02.475Z,87.94
2022-11-24T02:11:38.401Z,87.88
2022-11-24T02:14:13.751Z,87.98
2022-11-24T02:16:49.818Z,88.20
2022-11-24T02:19:33.410Z,88.22
2022-11-24T02:22:05.791Z,88.19
2022-11-24T02:24:42.690Z,88.35
2022-11-24T02:27:14.348Z,88.68
2022-11-24T02:29:45.713Z,88.77
2022-11-24T02:32:17.576Z,88.83
2022-11-24T02:34:49.165Z,88.66
2022-11-24T02:37:20.176Z,88.54
2022-11-24T02:39:51.267Z,88.35
2022-11-24T02:42:22.787Z,88.18
2022-11-24T02:44:56.213Z,87.94
2022-11-24T02:47:27.732Z,87.53
2022-11-24T02:49:59.264Z,87.41
2022-11-24T02:52:30.509Z,87.16
2022-11-24T02:55:01.504Z,86.86
2022-11-24T02:57:32.763Z,86.96
2022-11-24T03:00:04.428Z,86.80
2022-11-24T03:02:35.759Z,86.79
2022-11-24T03:05:08.258Z,86.49
2022-11-24T03:07:39.453Z,86.60
2022-11-24T03:10:11.768Z,86.89
2022-11-24T03:12:42.880Z,86.88
2022-11-24T03:15:14.563Z,86.80
2022-11-24T03:17:46.014Z,86.58
2022-11-24T03:20:17.805Z,86.73
2022-11-24T03:22:49.160Z,86.93
2022-11-24T03:25:20.652Z,86.99
2022-11-24T03:27:51.796Z,87.07
2022-11-24T03:30:22.984Z,87.01
2022-11-24T03:32:55.848Z,87.02
2022-11-24T03:35:27.199Z,87.10
2022-11-24T03:37:56.719Z,87.04
2022-11-24T03:40:27.719Z,87.13
2022-11-24T03:42:58.940Z,87.40
2022-11-24T03:45:46.548Z,87.20
2022-11-24T03:48:18.894Z,87.10
2022-11-24T03:50:56.786Z,87.49
2022-11-24T03:53:29.592Z,87.52
2022-11-24T03:56:01.024Z,87.67
2022-11-24T03:58:31.341Z,87.82
2022-11-24T04:01:02.585Z,87.66
2022-11-24T04:03:33.987Z,87.69
2022-11-24T04:06:05.023Z,87.79
2022-11-24T04:08:36.144Z,87.76
2022-11-24T04:11:07.385Z,87.84
2022-11-24T04:13:36.928Z,87.76
2022-11-24T04:16:10.461Z,87.78
2022-11-24T04:18:43.732Z,87.76
2022-11-24T04:21:14.654Z,87.74
2022-11-24T04:23:45.715Z,87.96
2022-11-24T04:26:16.791Z,87.90
2022-11-24T04:28:48.064Z,87.98
2022-11-24T04:31:19.381Z,88.02
2022-11-24T04:33:50.440Z,88.14
2022-11-24T04:36:21.459Z,88.14
2022-11-24T04:39:24.035Z,88.40
2022-11-24T04:41:48.019Z,88.43
2022-11-24T04:44:19.155Z,88.32
2022-11-24T04:46:49.314Z,88.30
2022-11-24T04:49:20.868Z,88.35
2022-11-24T04:51:51.887Z,88.46
2022-11-24T04:54:22.884Z,88.32
2022-11-24T04:56:54.536Z,88.42
2022-11-24T04:59:25.537Z,88.46
2022-11-24T05:01:56.819Z,88.52
2022-11-24T05:04:27.994Z,88.43
2022-11-24T05:06:58.924Z,88.40
2022-11-24T05:09:55.050Z,88.23
2022-11-24T05:12:20.700Z,88.16
2022-11-24T05:14:51.671Z,88.22
2022-11-24T05:17:22.534Z,88.04
2022-11-24T05:19:53.527Z,88.11
2022-11-24T05:22:24.728Z,87.91
2022-11-24T05:24:58.649Z,88.03
2022-11-24T05:27:29.899Z,88.06
2022-11-24T05:29:59.345Z,87.95
2022-11-24T05:32:30.485Z,88.12
2022-11-24T05:35:02.447Z,88.30
2022-11-24T05:37:34.315Z,88.47
2022-11-24T05:40:06.936Z,88.45
2022-11-24T05:42:47.803Z,88.25
2022-11-24T05:45:21.865Z,88.38
2022-11-24T05:47:53.375Z,88.38
2022-11-24T05:50:23.616Z,88.44
2022-11-24T05:52:52.946Z,88.98
2022-11-24T05:55:23.957Z,88.78
2022-11-24T05:58:00.730Z,88.53
2022-11-24T06:00:32.944Z,88.39
2022-11-24T06:03:04.682Z,88.44
2022-11-24T06:05:35.974Z,88.15
2022-11-24T06:08:05.628Z,87.96
2022-11-24T06:10:37.142Z,88.21
2022-11-24T06:13:07.922Z,88.12
2022-11-24T06:15:40.392Z,88.03
2022-11-24T06:18:11.304Z,87.94
2022-11-24T06:20:46.045Z,88.02
2022-11-24T06:23:24.313Z,88.04
2022-11-24T06:25:55.437Z,87.97
2022-11-24T06:28:26.476Z,87.96
2022-11-24T06:31:01.001Z,88.13
2022-11-24T06:33:35.293Z,87.99
2022-11-24T06:36:08.587Z,87.93
2022-11-24T06:38:40.077Z,87.81
2022-11-24T06:41:13.572Z,87.90
2022-11-24T06:43:44.970Z,87.93
2022-11-24T06:46:14.832Z,87.93
2022-11-24T06:48:45.743Z,87.83
2022-11-24T06:51:18.910Z,87.97
2022-11-24T06:53:50.206Z,88.12
2022-11-24T06:56:22.529Z,87.98
2022-11-24T06:58:54.661Z,88.02
2022-11-24T07:01:27.431Z,88.13
2022-11-24T07:03:59.450Z,88.26
2022-11-24T07:06:30.414Z,87.91
2022-11-24T07:09:01.323Z,88.02
2022-11-24T07:11:32.751Z,88.18
2022-11-24T07:14:02.051Z,88.12
2022-11-24T07:16:33.763Z,87.92
2022-11-24T07:19:05.099Z,87.93
2022-11-24T07:21:36.030Z,87.76
2022-11-24T07:24:08.103Z,87.67
2022-11-24T07:26:40.106Z,87.77
2022-11-24T07:29:11.176Z,87.93
2022-11-24T07:31:42.545Z,87.80
2022-11-24T07:34:14.890Z,87.84
2022-11-24T07:36:45.830Z,87.93
2022-11-24T07:39:16.741Z,88.04
2022-11-24T07:41:48.317Z,88.17
2022-11-24T07:44:19.316Z,88.08
2022-11-24T07:46:51.353Z,88.03
2022-11-24T07:49:22.450Z,88.03
2022-11-24T07:51:53.305Z,88.31
2022-11-24T07:54:23.997Z,88.25
2022-11-24T07:56:55.052Z,88.22
2022-11-24T07:59:25.988Z,88.13
2022-11-24T08:01:57.125Z,88.30
2022-11-24T08:04:28.219Z,88.35
2022-11-24T08:06:58.958Z,88.47
2022-11-24T08:09:30.058Z,88.50
2022-11-24T08:12:00.784Z,88.46
2022-11-24T08:14:31.830Z,88.38
2022-11-24T08:17:01.494Z,88.49
2022-11-24T08:19:32.762Z,88.42
2022-11-24T08:22:02.262Z,88.62
2022-11-24T08:24:33.609Z,88.49
2022-11-24T08:27:04.845Z,88.42
2022-11-24T08:29:35.934Z,88.29
2022-11-24T08:32:07.456Z,88.13
2022-11-24T08:34:38.601Z,88.22
2022-11-24T08:37:09.461Z,88.09
2022-11-24T08:39:39.124Z,88.06
2022-11-24T08:42:10.427Z,88.05
2022-11-24T08:44:39.791Z,88.10
2022-11-24T08:47:10.638Z,88.05
2022-11-24T08:49:42.040Z,87.95
2022-11-24T08:52:13.167Z,87.94
2022-11-24T08:54:44.780Z,87.98
2022-11-24T08:57:21.501Z,88.03
2022-11-24T08:59:52.856Z,87.90
2022-11-24T09:02:23.803Z,87.64
2022-11-24T09:04:53.548Z,87.47
2022-11-24T09:07:24.606Z,87.33
2022-11-24T09:09:55.669Z,87.24
2022-11-24T09:12:26.753Z,87.13
2022-11-24T09:14:57.722Z,87.03
2022-11-24T09:17:28.948Z,87.07
2022-11-24T09:22:47.619Z,87.07
2022-11-24T09:25:18.513Z,87.07
2022-11-24T09:27:49.351Z,86.79
2022-11-24T09:30:20.511Z,86.65
2022-11-24T09:32:51.318Z,86.67
2022-11-24T09:35:22.227Z,86.70
2022-11-24T09:37:53.013Z,86.42
2022-11-24T09:40:25.075Z,85.97
2022-11-24T09:43:01.819Z,85.73
2022-11-24T09:46:05.111Z,85.64
2022-11-24T09:48:41.343Z,85.42
2022-11-24T09:51:15.459Z,85.49
2022-11-24T09:53:55.922Z,85.54
2022-11-24T09:56:29.638Z,85.45
2022-11-24T09:59:05.697Z,85.38
2022-11-24T10:01:39.019Z,85.28
2022-11-24T10:04:17.236Z,85.36
2022-11-24T10:06:53.398Z,85.34
2022-11-24T10:09:46.806Z,85.14
2022-11-24T10:12:28.942Z,85.46
2022-11-24T10:15:18.892Z,85.47
2022-11-24T10:18:15.046Z,84.79
2022-11-24T10:20:59.005Z,84.44
2022-11-24T10:23:48.367Z,83.59
2022-11-24T10:26:26.436Z,83.29
2022-11-24T10:28:58.084Z,83.30
2022-11-24T10:31:34.190Z,83.46
2022-11-24T10:34:17.831Z,83.58
2022-11-24T10:36:51.180Z,83.25
2022-11-24T10:39:29.375Z,83.32
2022-11-24T10:42:06.717Z,83.17
2022-11-24T10:44:37.826Z,81.84
2022-11-24T10:47:18.258Z,81.58
2022-11-24T10:49:56.480Z,80.30
2022-11-24T10:52:29.604Z,79.39
2022-11-24T10:55:02.722Z,78.90
2022-11-24T10:57:35.771Z,79.14
2022-11-24T11:00:29.362Z,79.29
2022-11-24T11:03:19.521Z,78.95
2022-11-24T11:05:54.988Z,78.62
2022-11-24T11:08:28.946Z,78.61
2022-11-24T11:11:23.801Z,78.26
2022-11-24T11:14:03.789Z,77.56
2022-11-24T11:16:39.308Z,77.48
2022-11-24T11:19:55.507Z,77.50
2022-11-24T11:22:31.729Z,77.58
2022-11-24T11:25:21.180Z,77.25
2022-11-24T11:27:52.201Z,77.25
2022-11-24T11:36:16.934Z,76.86
2022-11-24T11:38:49.859Z,77.89
2022-11-24T11:41:25.340Z,78.88
2022-11-24T11:44:03.920Z,79.01
2022-11-24T11:46:35.531Z,79.36
2022-11-24T11:49:06.703Z,79.69
2022-11-24T11:55:05.372Z,79.70
2022-11-24T11:57:46.193Z,79.02
2022-11-24T12:00:20.298Z,78.92
2022-11-24T12:03:14.991Z,78.91
2022-11-24T12:05:54.392Z,78.38
2022-11-24T12:09:11.503Z,77.98
2022-11-24T12:11:37.851Z,78.06
2022-11-24T12:14:21.312Z,78.25
2022-11-24T12:16:59.593Z,78.66
2022-11-24T12:19:59.130Z,78.87
2022-11-24T12:22:43.011Z,78.42
2022-11-24T12:25:27.267Z,78.70
2022-11-24T12:28:12.298Z,78.51
2022-11-24T12:30:54.780Z,78.45
2022-11-24T12:33:37.940Z,78.47
2022-11-24T12:36:20.758Z,78.65
2022-11-24T12:39:03.013Z,78.92
2022-11-24T12:41:47.162Z,79.20
2022-11-24T12:44:36.682Z,79.33
2022-11-24T12:47:14.955Z,79.42
2022-11-24T12:50:03.917Z,79.49
2022-11-24T12:52:38.974Z,79.24
2022-11-24T12:55:16.300Z,78.93
2022-11-24T12:57:55.926Z,78.99
2022-11-24T13:00:35.648Z,79.13
2022-11-24T13:03:26.278Z,78.81
2022-11-24T13:06:02.461Z,79.17
2022-11-24T13:08:36.804Z,79.66
2022-11-24T13:11:41.988Z,80.01
2022-11-24T13:14:19.467Z,80.15
2022-11-24T13:17:27.957Z,79.56
2022-11-24T13:19:50.905Z,79.72
2022-11-24T13:22:27.393Z,79.56
2022-11-24T13:25:17.467Z,79.78
2022-11-24T13:27:52.969Z,80.06
2022-11-24T13:30:56.273Z,80.41
2022-11-24T13:33:38.019Z,80.82
2022-11-24T13:36:35.587Z,81.17
2022-11-24T13:39:19.605Z,81.53
2022-11-24T13:42:10.516Z,81.69
2022-11-24T13:45:03.071Z,81.94
2022-11-24T13:47:37.589Z,82.08
2022-11-24T13:50:11.661Z,82.47
2022-11-24T13:52:52.074Z,82.42
2022-11-24T13:55:30.653Z,82.63
2022-11-24T13:58:18.674Z,82.94
2022-11-24T14:01:06.779Z,83.17
2022-11-24T14:03:47.566Z,83.24
2022-11-24T14:06:35.474Z,83.26
2022-11-24T14:09:21.077Z,83.40
2022-11-24T14:12:01.289Z,83.63
2022-11-24T14:14:32.259Z,83.51
2022-11-24T14:17:18.032Z,83.75
2022-11-24T14:19:51.340Z,83.80
2022-11-24T14:22:24.423Z,83.85
2022-11-24T14:24:57.378Z,83.68
2022-11-24T14:27:33.463Z,83.62
2022-11-24T14:30:06.013Z,83.63
2022-11-24T14:32:40.367Z,83.55
2022-11-24T14:35:21.632Z,83.57
2022-11-24T14:37:52.769Z,83.55
2022-11-24T14:40:45.084Z,83.42
2022-11-24T14:43:27.128Z,83.34
2022-11-24T14:46:00.646Z,83.46
2022-11-24T14:48:37.012Z,83.66
2022-11-24T14:51:14.647Z,83.63
2022-11-24T14:53:48.101Z,83.63
2022-11-24T14:56:30.604Z,83.74
2022-11-24T14:59:01.609Z,83.77
2022-11-24T15:01:32.872Z,83.79
2022-11-24T15:07:19.910Z,83.74
2022-11-24T15:09:57.982Z,83.90
2022-11-24T15:12:34.505Z,84.02
2022-11-24T15:15:08.922Z,84.13
2022-11-24T15:17:46.714Z,83.90
2022-11-24T15:20:25.985Z,83.94
2022-11-24T15:23:23.991Z,83.92
2022-11-24T15:25:55.433Z,83.86
2022-11-24T15:28:26.755Z,83.71
2022-11-24T15:31:01.287Z,83.76
2022-11-24T15:33:33.098Z,84.06
2022-11-24T15:36:04.372Z,84.04
2022-11-24T15:38:35.766Z,84.08
2022-11-24T15:41:20.748Z,84.18
2022-11-24T15:43:58.769Z,84.29
2022-11-24T15:46:30.682Z,84.26
2022-11-24T15:49:01.543Z,84.25
2022-11-24T15:51:32.360Z,84.27
2022-11-24T15:54:03.577Z,84.07
2022-11-24T15:56:34.211Z,84.25
2022-11-24T15:59:05.959Z,84.30
2022-11-24T16:01:37.015Z,84.35
2022-11-24T16:04:07.795Z,84.47
2022-11-24T16:06:38.632Z,84.61
2022-11-24T16:09:13.825Z,84.56
2022-11-24T16:11:45.055Z,84.45
2022-11-24T16:14:16.153Z,84.71
2022-11-24T16:16:45.632Z,84.62
2022-11-24T16:19:16.704Z,84.72
2022-11-24T16:21:50.003Z,84.89
2022-11-24T16:24:21.298Z,84.91
2022-11-24T16:26:52.248Z,84.71
2022-11-24T16:29:24.324Z,84.61
2022-11-24T16:31:56.059Z,84.65
2022-11-24T16:34:27.155Z,84.43
2022-11-24T16:36:56.767Z,84.43
2022-11-24T16:39:28.127Z,84.77
2022-11-24T16:41:59.105Z,85.13
2022-11-24T16:44:30.144Z,85.35
2022-11-24T16:47:01.493Z,85.52
2022-11-24T16:49:32.638Z,85.52
2022-11-24T16:52:02.193Z,85.48
2022-11-24T16:54:33.467Z,85.52
2022-11-24T16:57:04.802Z,85.65
2022-11-24T16:59:35.783Z,85.65
2022-11-24T17:02:05.449Z,85.54
2022-11-24T17:04:36.649Z,85.49
2022-11-24T17:07:06.143Z,85.67
2022-11-24T17:09:40.628Z,85.87
2022-11-24T17:12:11.937Z,85.90
2022-11-24T17:14:44.338Z,85.97
2022-11-24T17:17:20.037Z,86.11
2022-11-24T17:19:51.005Z,86.00
2022-11-24T17:22:22.005Z,85.95
2022-11-24T17:24:53.161Z,85.90
2022-11-24T17:27:24.065Z,86.07
2022-11-24T17:29:53.558Z,86.02
2022-11-24T17:32:24.512Z,85.91
2022-11-24T17:34:55.801Z,85.93
2022-11-24T17:37:26.810Z,86.01
2022-11-24T17:40:20.813Z,85.92
2022-11-24T17:42:48.813Z,85.85
2022-11-24T17:45:19.972Z,85.91
2022-11-24T17:47:50.962Z,85.85
2022-11-24T17:50:25.686Z,85.60
2022-11-24T17:52:57.430Z,85.68
2022-11-24T17:55:28.457Z,85.72
2022-11-24T17:58:00.002Z,85.55
2022-11-24T18:00:31.118Z,85.47
2022-11-24T18:03:01.361Z,85.39
2022-11-24T18:05:36.263Z,85.36
2022-11-24T18:08:07.746Z,85.47
2022-11-24T18:10:38.638Z,85.63
2022-11-24T18:13:08.260Z,85.45
2022-11-24T18:15:39.183Z,85.45
2022-11-24T18:18:10.117Z,85.54
2022-11-24T18:20:41.084Z,85.42
2022-11-24T18:23:12.109Z,85.46
2022-11-24T18:25:43.150Z,85.68
2022-11-24T18:28:14.078Z,85.94
2022-11-24T18:30:45.030Z,86.20
2022-11-24T18:33:16.113Z,86.18
2022-11-24T18:35:45.883Z,86.15
2022-11-24T18:38:16.920Z,86.22
2022-11-24T18:40:53.117Z,86.36
2022-11-24T18:43:24.474Z,86.32
2022-11-24T18:45:55.699Z,86.23
2022-11-24T18:48:27.313Z,86.19
2022-11-24T18:50:59.442Z,86.13
2022-11-24T18:53:30.682Z,86.01
2022-11-24T18:56:00.705Z,85.99
2022-11-24T18:58:30.900Z,86.04
2022-11-24T19:01:10.437Z,86.14
2022-11-24T19:03:48.058Z,86.21
2022-11-24T19:06:21.787Z,86.30
2022-11-24T19:08:56.021Z,86.24
2022-11-24T19:11:29.143Z,86.17
2022-11-24T19:14:00.531Z,86.12
2022-11-24T19:16:31.681Z,86.08
2022-11-24T19:19:02.625Z,86.02
2022-11-24T19:21:35.509Z,86.11
2022-11-24T19:24:10.030Z,86.09
2022-11-24T19:26:41.629Z,86.02
2022-11-24T19:29:13.022Z,85.92
2022-11-24T19:31:43.939Z,85.92
2022-11-24T19:34:15.273Z,85.84
2022-11-24T19:36:46.400Z,85.93
2022-11-24T19:39:17.788Z,85.97
2022-11-24T19:41:48.600Z,85.91
2022-11-24T19:44:20.241Z,85.78
2022-11-24T19:46:51.210Z,85.59
2022-11-24T19:49:20.873Z,85.52
2022-11-24T19:51:51.934Z,85.54
2022-11-24T19:54:22.901Z,85.47
2022-11-24T19:56:56.816Z,85.48
2022-11-24T19:59:27.861Z,85.31
2022-11-24T20:01:59.330Z,85.10
2022-11-24T20:04:32.948Z,85.20
2022-11-24T20:07:04.203Z,85.28
2022-11-24T20:09:35.107Z,85.44
2022-11-24T20:12:07.088Z,85.43
2022-11-24T20:14:38.037Z,85.41
2022-11-24T20:17:14.160Z,85.50
2022-11-24T20:19:45.215Z,85.63
2022-11-24T20:22:16.178Z,85.80
2022-11-24T20:24:47.184Z,85.83
2022-11-24T20:27:18.124Z,86.08
2022-11-24T20:29:49.200Z,85.87
2022-11-24T20:32:20.875Z,85.98
2022-11-24T20:34:51.703Z,86.18
2022-11-24T20:40:13.496Z,86.34
2022-11-24T20:42:44.427Z,86.58
2022-11-24T20:45:15.181Z,86.58
2022-11-24T20:47:46.070Z,86.64
2022-11-24T20:50:17.155Z,86.47
2022-11-24T20:52:47.945Z,86.35
2022-11-24T20:55:19.065Z,86.34
2022-11-24T20:57:49.795Z,86.28
2022-11-24T21:00:21.188Z,86.19
2022-11-24T21:02:52.057Z,86.27
2022-11-24T21:05:22.946Z,86.23
2022-11-24T21:07:53.763Z,86.21
2022-11-24T21:10:24.798Z,86.42
2022-11-24T21:12:55.859Z,86.43
2022-11-24T21:15:26.758Z,86.49
2022-11-24T21:17:57.778Z,86.50
2022-11-24T21:20:28.908Z,86.48
2022-11-24T21:22:59.956Z,86.40
2022-11-24T21:25:31.823Z,86.32
2022-11-24T21:28:03.230Z,86.36
2022-11-24T21:30:37.369Z,86.40
2022-11-24T21:33:09.235Z,86.24
2022-11-24T21:35:40.196Z,86.23
2022-11-24T21:38:11.100Z,86.37
2022-11-24T21:40:44.790Z,86.44
2022-11-24T21:43:19.801Z,86.55
2022-11-24T21:45:50.743Z,86.37
2022-11-24T21:48:20.288Z,86.39
2022-11-24T21:50:51.191Z,86.37
2022-11-24T21:53:20.975Z,86.41
2022-11-24T21:55:58.320Z,86.47
2022-11-24T21:58:32.907Z,86.40
2022-11-24T22:01:06.371Z,86.37
2022-11-24T22:03:37.495Z,86.46
2022-11-24T22:06:09.285Z,86.46
2022-11-24T22:08:40.444Z,86.47
2022-11-24T22:11:15.218Z,86.26
2022-11-24T22:13:46.677Z,86.19
2022-11-24T22:16:19.276Z,86.25
2022-11-24T22:18:51.225Z,86.34
2022-11-24T22:21:24.155Z,86.30
2022-11-24T22:23:55.541Z,86.27
2022-11-24T22:26:27.588Z,86.25
2022-11-24T22:28:59.779Z,86.21
2022-11-24T22:31:32.457Z,86.17
2022-11-24T22:34:03.840Z,86.13
2022-11-24T22:36:36.705Z,86.05
2022-11-24T22:39:12.315Z,85.84
2022-11-24T22:41:43.248Z,85.71
2022-11-24T22:44:14.181Z,85.86
2022-11-24T22:46:45.115Z,85.74
2022-11-24T22:49:16.155Z,85.64
2022-11-24T22:51:47.051Z,85.72
2022-11-24T22:54:17.928Z,85.75
2022-11-24T22:56:49.107Z,85.94
2022-11-24T22:59:20.409Z,86.05
2022-11-24T23:01:49.876Z,85.97
2022-11-24T23:04:21.119Z,86.04
2022-11-24T23:06:52.248Z,86.18
2022-11-24T23:09:23.816Z,86.28
2022-11-24T23:11:54.775Z,86.29
2022-11-24T23:14:26.753Z,86.31
2022-11-24T23:17:01.027Z,86.30
2022-11-24T23:19:32.307Z,86.16
2022-11-24T23:22:01.757Z,86.07
2022-11-24T23:24:37.899Z,85.85
2022-11-24T23:27:09.196Z,85.83
2022-11-24T23:29:39.925Z,85.86
2022-11-24T23:32:11.467Z,85.88
2022-11-24T23:34:42.487Z,85.92
2022-11-24T23:37:13.732Z,85.97
2022-11-24T23:39:44.692Z,86.12
2022-11-24T23:42:15.632Z,86.21
2022-11-24T23:44:46.701Z,86.37
2022-11-24T23:47:17.589Z,86.34
2022-11-24T23:49:48.663Z,86.47
2022-11-24T23:52:18.004Z,86.51
2022-11-24T23:57:37.952Z,86.50
